createdAt,value
2022-10-22T00:00:59.920Z,2.10
2022-10-22T00:03:26.091Z,2.10
2022-10-22T00:05:52.682Z,2.30
2022-10-22T00:08:19.294Z,2.20
2022-10-22T00:10:45.522Z,2.20
2022-10-22T00:13:11.857Z,2.30
2022-10-22T00:15:38.468Z,2.20
2022-10-22T00:18:04.774Z,2.40
2022-10-22T00:20:31.226Z,2.37
2022-10-22T00:22:57.482Z,2.30
2022-10-22T00:25:23.686Z,2.10
2022-10-22T00:27:49.932Z,2.10
2022-10-22T00:30:16.268Z,2.20
2022-10-22T00:32:42.642Z,2.28
2022-10-22T00:35:09.128Z,2.40
2022-10-22T00:37:35.351Z,2.40
2022-10-22T00:40:01.688Z,2.67
2022-10-22T00:42:29.662Z,3.20
2022-10-22T00:45:19.638Z,3.17
2022-10-22T00:48:02.056Z,2.80
2022-10-22T00:50:31.607Z,2.67
2022-10-22T00:52:57.990Z,2.60
2022-10-22T00:55:25.625Z,2.90
2022-10-22T00:57:53.507Z,2.60
2022-10-22T01:00:20.244Z,2.62
2022-10-22T01:02:47.925Z,2.30
2022-10-22T01:05:14.208Z,2.30
2022-10-22T01:07:46.408Z,2.50
2022-10-22T01:10:52.923Z,2.50
2022-10-22T01:16:06.768Z,2.45
2022-10-22T01:21:14.957Z,2.15
2022-10-22T01:29:05.692Z,2.10
2022-10-22T01:31:34.406Z,2.80
2022-10-22T01:34:00.701Z,3.30
2022-10-22T01:36:28.979Z,3.03
2022-10-22T01:38:55.138Z,3.20
2022-10-22T01:41:21.296Z,3.10
2022-10-22T01:43:48.410Z,2.70
2022-10-22T01:46:14.684Z,2.70
2022-10-22T01:51:37.387Z,2.60
2022-10-22T01:54:25.923Z,2.33
2022-10-22T01:57:59.996Z,2.50
2022-10-22T02:00:26.395Z,2.40
2022-10-22T02:03:01.897Z,2.50
2022-10-22T02:06:02.228Z,2.30
2022-10-22T02:08:30.463Z,2.20
2022-10-22T02:10:57.463Z,2.10
2022-10-22T02:13:29.020Z,2.00
2022-10-22T02:15:56.477Z,2.00
2022-10-22T02:18:24.029Z,2.10
2022-10-22T02:20:50.181Z,2.22
2022-10-22T02:23:16.377Z,2.20
2022-10-22T02:25:45.236Z,2.30
2022-10-22T02:28:37.110Z,2.30
2022-10-22T02:31:15.546Z,2.37
2022-10-22T02:33:50.169Z,2.80
2022-10-22T02:36:16.466Z,2.70
2022-10-22T02:38:43.186Z,2.80
2022-10-22T02:41:09.432Z,3.28
2022-10-22T02:43:41.989Z,3.25
2022-10-22T02:46:09.686Z,3.30
2022-10-22T02:48:36.202Z,2.97
2022-10-22T02:51:02.561Z,2.80
2022-10-22T02:53:28.758Z,2.97
2022-10-22T02:55:55.265Z,3.00
2022-10-22T02:58:21.523Z,2.90
2022-10-22T03:00:49.441Z,2.85
2022-10-22T03:03:16.186Z,2.70
2022-10-22T03:05:42.461Z,2.62
2022-10-22T03:08:08.645Z,2.80
2022-10-22T03:10:34.911Z,2.50
2022-10-22T03:13:01.144Z,2.50
2022-10-22T03:17:54.484Z,2.65
2022-10-22T03:20:21.252Z,2.37
2022-10-22T03:22:47.483Z,2.90
2022-10-22T03:25:15.967Z,3.05
2022-10-22T03:27:42.497Z,3.10
2022-10-22T03:30:10.014Z,3.40
2022-10-22T03:32:36.145Z,3.30
2022-10-22T03:35:03.516Z,3.50
2022-10-22T03:37:29.717Z,3.55
2022-10-22T03:39:55.922Z,3.15
2022-10-22T03:42:22.215Z,3.40
2022-10-22T03:44:48.446Z,3.37
2022-10-22T03:47:14.671Z,3.72
2022-10-22T03:49:40.896Z,3.45
2022-10-22T03:52:11.671Z,3.25
2022-10-22T03:57:05.113Z,3.08
2022-10-22T03:59:38.932Z,3.03
2022-10-22T04:02:05.242Z,2.90
2022-10-22T04:04:31.580Z,3.20
2022-10-22T04:06:58.220Z,3.50
2022-10-22T04:09:24.852Z,2.92
2022-10-22T04:11:51.075Z,3.10
2022-10-22T04:14:17.364Z,3.37
2022-10-22T04:16:43.634Z,3.47
2022-10-22T04:19:09.851Z,3.60
2022-10-22T04:21:36.192Z,3.40
2022-10-22T04:24:02.360Z,3.40
2022-10-22T04:26:28.552Z,2.97
2022-10-22T04:28:54.870Z,3.28
2022-10-22T04:31:23.147Z,2.95
2022-10-22T04:33:56.673Z,2.78
2022-10-22T04:36:23.180Z,2.50
2022-10-22T04:38:57.495Z,2.55
2022-10-22T04:41:28.744Z,2.37
2022-10-22T04:43:55.378Z,2.40
2022-10-22T04:46:21.911Z,2.50
2022-10-22T04:48:48.534Z,2.40
2022-10-22T04:51:17.021Z,2.40
2022-10-22T04:53:43.370Z,2.28
2022-10-22T04:56:24.117Z,2.20
2022-10-22T04:59:01.140Z,2.60
2022-10-22T05:01:38.364Z,2.40
2022-10-22T05:04:08.473Z,2.47
2022-10-22T05:06:35.192Z,2.50
2022-10-22T05:09:04.264Z,2.60
2022-10-22T05:11:35.693Z,2.60
2022-10-22T05:14:03.461Z,2.80
2022-10-22T05:16:30.315Z,3.10
2022-10-22T05:18:58.861Z,3.10
2022-10-22T05:21:25.157Z,2.90
2022-10-22T05:23:52.387Z,2.90
2022-10-22T05:26:19.854Z,3.10
2022-10-22T05:28:49.428Z,2.90
2022-10-22T05:31:15.971Z,2.90
2022-10-22T05:33:42.394Z,3.08
2022-10-22T05:36:10.767Z,3.10
2022-10-22T05:38:36.997Z,3.50
2022-10-22T05:41:05.218Z,3.25
2022-10-22T05:43:31.418Z,3.22
2022-10-22T05:46:03.337Z,3.50
2022-10-22T05:48:29.758Z,3.37
2022-10-22T05:50:56.530Z,3.10
2022-10-22T05:53:22.755Z,3.33
2022-10-22T05:55:48.997Z,3.30
2022-10-22T05:58:15.210Z,3.40
2022-10-22T06:00:41.858Z,3.28
2022-10-22T06:03:08.062Z,3.20
2022-10-22T06:05:35.940Z,3.30
2022-10-22T06:08:02.549Z,3.00
2022-10-22T06:10:29.154Z,3.17
2022-10-22T06:12:55.404Z,3.12
2022-10-22T06:15:21.595Z,3.20
2022-10-22T06:17:47.894Z,2.90
2022-10-22T06:20:14.430Z,2.60
2022-10-22T06:22:40.816Z,2.42
2022-10-22T06:25:08.275Z,2.35
2022-10-22T06:27:36.393Z,2.40
2022-10-22T06:30:04.057Z,2.40
2022-10-22T06:32:30.379Z,2.30
2022-10-22T06:34:56.561Z,2.15
2022-10-22T06:37:22.750Z,2.40
2022-10-22T06:39:48.976Z,2.53
2022-10-22T06:42:15.291Z,2.40
2022-10-22T06:44:41.422Z,2.30
2022-10-22T06:47:07.646Z,2.40
2022-10-22T06:49:33.889Z,2.60
2022-10-22T06:52:00.114Z,2.50
2022-10-22T06:54:26.302Z,2.53
2022-10-22T06:56:52.552Z,2.40
2022-10-22T06:59:18.808Z,2.50
2022-10-22T07:01:47.689Z,2.40
2022-10-22T07:04:13.973Z,2.30
2022-10-22T07:06:40.171Z,2.40
2022-10-22T07:09:06.813Z,2.33
2022-10-22T07:11:51.418Z,2.30
2022-10-22T07:14:18.679Z,2.30
2022-10-22T07:16:46.350Z,2.30
2022-10-22T07:19:13.490Z,2.40
2022-10-22T07:21:40.447Z,2.45
2022-10-22T07:24:07.823Z,2.50
2022-10-22T07:26:34.526Z,2.42
2022-10-22T07:29:00.958Z,2.37
2022-10-22T07:31:27.296Z,2.20
2022-10-22T07:33:53.475Z,2.28
2022-10-22T07:36:19.735Z,2.17
2022-10-22T07:38:46.600Z,2.20
2022-10-22T07:41:14.345Z,2.20
2022-10-22T07:43:42.257Z,2.17
2022-10-22T07:46:09.265Z,2.30
2022-10-22T07:48:36.068Z,2.25
2022-10-22T07:51:02.338Z,2.22
2022-10-22T07:53:29.880Z,2.30
2022-10-22T07:55:57.242Z,2.35
2022-10-22T07:58:24.922Z,2.50
2022-10-22T08:00:53.999Z,2.50
2022-10-22T08:03:20.222Z,2.28
2022-10-22T08:05:47.623Z,2.30
2022-10-22T08:08:15.143Z,2.50
2022-10-22T08:10:41.457Z,2.90
2022-10-22T08:13:07.796Z,2.80
2022-10-22T08:15:34.579Z,3.00
2022-10-22T08:18:01.902Z,3.30
2022-10-22T08:20:28.317Z,3.00
2022-10-22T08:22:55.155Z,3.10
2022-10-22T08:25:21.383Z,2.90
2022-10-22T08:27:47.711Z,2.67
2022-10-22T08:30:14.660Z,2.67
2022-10-22T08:32:42.309Z,2.87
2022-10-22T08:35:10.455Z,2.87
2022-10-22T08:37:39.522Z,2.92
2022-10-22T08:40:07.083Z,2.92
2022-10-22T08:44:44.237Z,2.80
2022-10-22T08:47:30.535Z,2.47
2022-10-22T08:49:57.992Z,2.40
2022-10-22T08:52:24.322Z,2.60
2022-10-22T08:54:56.144Z,2.55
2022-10-22T08:57:52.548Z,2.40
2022-10-22T09:00:32.264Z,2.37
2022-10-22T09:04:30.240Z,2.30
2022-10-22T09:06:57.773Z,2.35
2022-10-22T09:09:26.412Z,2.50
2022-10-22T09:11:52.843Z,2.60
2022-10-22T09:14:20.506Z,2.70
2022-10-22T09:17:21.617Z,3.10
2022-10-22T09:20:16.417Z,2.60
2022-10-22T09:24:34.932Z,2.40
2022-10-22T09:27:01.317Z,2.40
2022-10-22T09:29:32.816Z,2.40
2022-10-22T09:31:59.292Z,2.40
2022-10-22T09:34:25.558Z,2.30
2022-10-22T09:37:00.157Z,2.42
2022-10-22T09:39:37.382Z,2.30
2022-10-22T09:42:03.859Z,2.22
2022-10-22T09:44:35.493Z,2.25
2022-10-22T09:47:06.084Z,2.50
2022-10-22T09:49:34.533Z,2.40
2022-10-22T09:52:01.497Z,2.80
2022-10-22T09:55:02.362Z,2.60
2022-10-22T09:57:28.637Z,2.75
2022-10-22T09:59:57.313Z,2.53
2022-10-22T10:02:38.380Z,2.40
2022-10-22T10:05:05.907Z,2.50
2022-10-22T10:07:33.700Z,2.50
2022-10-22T10:10:00.370Z,2.60
2022-10-22T10:13:17.959Z,2.67
2022-10-22T10:16:08.488Z,2.42
2022-10-22T10:21:46.816Z,2.60
2022-10-22T10:29:11.438Z,2.60
2022-10-22T10:32:02.568Z,2.80
2022-10-22T10:36:14.738Z,2.50
2022-10-22T10:44:56.177Z,2.22
2022-10-22T10:48:30.745Z,2.20
2022-10-22T10:52:36.260Z,2.40
2022-10-22T10:55:13.655Z,2.37
2022-10-22T10:59:29.858Z,2.80
2022-10-22T11:02:10.435Z,2.70
2022-10-22T11:07:42.761Z,3.20
2022-10-22T11:10:36.903Z,2.80
2022-10-22T11:13:45.238Z,3.22
2022-10-22T11:16:41.886Z,3.33
2022-10-22T11:19:59.906Z,3.58
2022-10-22T11:22:32.823Z,3.62
2022-10-22T11:25:23.091Z,3.60
2022-10-22T11:28:03.182Z,3.40
2022-10-22T11:30:35.766Z,3.60
2022-10-22T11:33:07.717Z,3.35
2022-10-22T11:35:36.204Z,3.40
2022-10-22T11:38:03.206Z,3.22
2022-10-22T11:40:37.494Z,3.53
2022-10-22T11:43:08.506Z,3.72
2022-10-22T11:45:42.755Z,3.80
2022-10-22T11:48:28.850Z,3.70
2022-10-22T11:50:57.737Z,3.50
2022-10-22T11:53:39.351Z,3.72
2022-10-22T11:56:50.069Z,3.45
2022-10-22T12:00:05.371Z,2.83
2022-10-22T12:02:44.915Z,3.05
2022-10-22T12:07:04.039Z,2.60
2022-10-22T12:09:32.648Z,2.50
2022-10-22T12:12:16.205Z,2.50
2022-10-22T12:14:59.403Z,2.50
2022-10-22T12:17:26.801Z,2.60
2022-10-22T12:20:13.330Z,2.40
2022-10-22T12:22:41.490Z,2.70
2022-10-22T12:25:21.606Z,2.70
2022-10-22T12:27:55.829Z,2.40
2022-10-22T12:30:25.334Z,2.60
2022-10-22T12:32:56.626Z,2.50
2022-10-22T12:35:31.894Z,2.90
2022-10-22T12:38:01.420Z,2.87
2022-10-22T12:40:35.238Z,2.60
2022-10-22T12:43:07.141Z,2.60
2022-10-22T12:45:34.229Z,2.58
2022-10-22T12:48:02.319Z,2.40
2022-10-22T12:50:42.694Z,2.30
2022-10-22T12:53:17.285Z,2.30
2022-10-22T12:55:49.472Z,2.20
2022-10-22T12:58:25.304Z,2.37
2022-10-22T13:00:57.719Z,2.40
2022-10-22T13:05:03.507Z,2.50
2022-10-22T13:07:39.719Z,2.33
2022-10-22T13:10:31.550Z,2.60
2022-10-22T13:12:58.302Z,2.80
2022-10-22T13:15:37.035Z,2.80
2022-10-22T13:18:20.718Z,2.80
2022-10-22T13:21:09.270Z,2.70
2022-10-22T13:23:35.758Z,2.70
2022-10-22T13:26:16.133Z,2.70
2022-10-22T13:28:43.314Z,2.90
2022-10-22T13:31:18.346Z,3.00
2022-10-22T13:33:53.075Z,3.30
2022-10-22T13:36:19.307Z,3.00
2022-10-22T13:38:45.729Z,3.00
2022-10-22T13:41:27.636Z,3.03
2022-10-22T13:43:55.497Z,3.00
2022-10-22T13:46:21.842Z,3.00
2022-10-22T13:48:48.767Z,3.30
2022-10-22T13:51:50.617Z,3.33
2022-10-22T13:54:21.877Z,3.20
2022-10-22T13:56:48.408Z,3.30
2022-10-22T13:59:17.258Z,3.22
2022-10-22T14:01:46.698Z,3.20
2022-10-22T14:04:13.291Z,3.30
2022-10-22T14:06:39.554Z,3.20
2022-10-22T14:09:09.145Z,3.40
2022-10-22T14:11:35.798Z,3.10
2022-10-22T14:14:08.135Z,3.20
2022-10-22T14:16:34.630Z,3.10
2022-10-22T14:19:01.671Z,3.40
2022-10-22T14:21:34.538Z,3.10
2022-10-22T14:24:00.848Z,3.20
2022-10-22T14:26:30.636Z,3.00
2022-10-22T14:29:12.343Z,2.92
2022-10-22T14:31:42.927Z,2.80
2022-10-22T14:34:11.265Z,2.80
2022-10-22T14:36:37.847Z,2.70
2022-10-22T14:39:04.583Z,2.60
2022-10-22T14:41:31.393Z,2.60
2022-10-22T14:43:59.166Z,2.40
2022-10-22T14:46:25.599Z,2.40
2022-10-22T14:48:51.902Z,2.60
2022-10-22T14:51:20.709Z,2.58
2022-10-22T14:53:47.119Z,2.30
2022-10-22T14:56:15.827Z,2.50
2022-10-22T14:58:42.258Z,2.70
2022-10-22T15:01:09.972Z,2.65
2022-10-22T15:03:37.790Z,2.70
2022-10-22T15:06:04.198Z,2.60
2022-10-22T15:08:30.499Z,2.80
2022-10-22T15:10:58.378Z,2.80
2022-10-22T15:13:24.650Z,2.70
2022-10-22T15:15:50.885Z,2.60
2022-10-22T15:18:17.405Z,2.80
2022-10-22T15:20:44.175Z,2.70
2022-10-22T15:23:10.579Z,2.55
2022-10-22T15:25:36.760Z,2.75
2022-10-22T15:28:09.540Z,2.70
2022-10-22T15:30:36.746Z,2.83
2022-10-22T15:33:03.783Z,2.62
2022-10-22T15:35:30.310Z,2.92
2022-10-22T15:37:56.714Z,2.90
2022-10-22T15:40:23.277Z,2.90
2022-10-22T15:42:49.709Z,2.70
2022-10-22T15:45:16.570Z,2.65
2022-10-22T15:47:48.282Z,2.70
2022-10-22T15:50:15.373Z,2.62
2022-10-22T15:52:43.057Z,2.65
2022-10-22T15:55:10.326Z,2.70
2022-10-22T15:57:37.730Z,2.60
2022-10-22T16:00:05.877Z,2.60
2022-10-22T16:02:33.920Z,2.72
2022-10-22T16:05:00.268Z,2.50
2022-10-22T16:07:28.172Z,2.60
2022-10-22T16:09:59.422Z,2.58
2022-10-22T16:12:27.277Z,2.40
2022-10-22T16:14:54.807Z,2.70
2022-10-22T16:17:21.878Z,2.53
2022-10-22T16:19:49.760Z,2.70
2022-10-22T16:22:16.831Z,2.50
2022-10-22T16:24:43.229Z,2.70
2022-10-22T16:27:09.697Z,2.60
2022-10-22T16:29:39.675Z,2.75
2022-10-22T16:32:07.702Z,2.83
2022-10-22T16:34:34.203Z,2.70
2022-10-22T16:37:00.661Z,2.55
2022-10-22T16:39:27.329Z,2.80
2022-10-22T16:41:55.501Z,2.60
2022-10-22T16:44:22.362Z,2.80
2022-10-22T16:46:49.508Z,2.70
2022-10-22T16:49:16.045Z,2.62
2022-10-22T16:51:43.092Z,2.55
2022-10-22T16:54:12.759Z,2.58
2022-10-22T16:56:39.994Z,2.70
2022-10-22T16:59:07.821Z,2.60
2022-10-22T17:01:39.509Z,2.42
2022-10-22T17:04:07.743Z,2.60
2022-10-22T17:06:35.520Z,2.62
2022-10-22T17:09:05.842Z,2.45
2022-10-22T17:11:36.285Z,2.45
2022-10-22T17:14:05.672Z,2.50
2022-10-22T17:16:32.563Z,2.60
2022-10-22T17:18:58.931Z,2.50
2022-10-22T17:21:25.315Z,2.55
2022-10-22T17:23:57.950Z,2.33
2022-10-22T17:26:26.344Z,2.55
2022-10-22T17:28:57.129Z,2.45
2022-10-22T17:31:32.432Z,2.53
2022-10-22T17:34:00.465Z,2.47
2022-10-22T17:36:31.799Z,2.55
2022-10-22T17:39:02.954Z,2.40
2022-10-22T17:41:32.027Z,2.58
2022-10-22T17:44:02.393Z,2.67
2022-10-22T17:46:33.763Z,2.78
2022-10-22T17:49:02.198Z,2.75
2022-10-22T17:51:29.098Z,2.80
2022-10-22T17:53:56.712Z,2.97
2022-10-22T17:56:24.925Z,3.20
2022-10-22T17:58:53.163Z,6.43
2022-10-22T18:01:24.683Z,3.15
2022-10-22T18:03:54.418Z,3.15
2022-10-22T18:06:21.975Z,3.10
2022-10-22T18:11:21.815Z,3.10
2022-10-22T18:13:49.791Z,2.92
2022-10-22T18:16:19.387Z,2.97
2022-10-22T18:18:47.262Z,2.95
2022-10-22T18:21:15.184Z,3.03
2022-10-22T18:23:43.046Z,3.08
2022-10-22T18:26:12.015Z,3.30
2022-10-22T18:28:40.384Z,2.90
2022-10-22T18:31:16.681Z,3.00
2022-10-22T18:33:45.014Z,2.75
2022-10-22T18:36:14.403Z,2.65
2022-10-22T18:38:41.638Z,2.90
2022-10-22T18:41:09.327Z,2.75
2022-10-22T18:43:37.099Z,2.72
2022-10-22T18:46:06.286Z,2.80
2022-10-22T18:48:34.023Z,2.62
2022-10-22T18:51:06.607Z,2.67
2022-10-22T18:53:34.791Z,2.83
2022-10-22T18:56:01.834Z,2.60
2022-10-22T18:58:28.413Z,2.60
2022-10-22T19:00:55.201Z,2.50
2022-10-22T19:03:21.824Z,2.37
2022-10-22T19:05:50.001Z,2.45
2022-10-22T19:08:16.702Z,2.42
2022-10-22T19:10:45.707Z,2.50
2022-10-22T19:13:16.806Z,2.50
2022-10-22T19:15:43.315Z,2.53
2022-10-22T19:18:10.149Z,2.60
2022-10-22T19:20:36.691Z,2.42
2022-10-22T19:23:03.223Z,2.50
2022-10-22T19:25:29.433Z,2.50
2022-10-22T19:27:58.519Z,2.60
2022-10-22T19:30:24.725Z,2.58
2022-10-22T19:32:52.067Z,2.47
2022-10-22T19:35:18.539Z,2.50
2022-10-22T19:37:48.294Z,2.30
2022-10-22T19:40:15.588Z,2.40
2022-10-22T19:42:44.446Z,2.30
2022-10-22T19:45:11.388Z,2.33
2022-10-22T19:47:37.994Z,2.45
2022-10-22T19:50:06.247Z,2.37
2022-10-22T19:52:33.007Z,2.40
2022-10-22T19:54:59.403Z,2.30
2022-10-22T19:57:31.242Z,2.50
2022-10-22T19:59:57.959Z,2.30
2022-10-22T20:02:26.171Z,2.30
2022-10-22T20:04:53.578Z,2.33
2022-10-22T20:07:20.702Z,2.40
2022-10-22T20:09:47.759Z,2.30
2022-10-22T20:12:14.608Z,2.15
2022-10-22T20:14:42.486Z,2.33
2022-10-22T20:17:09.338Z,2.20
2022-10-22T20:19:35.610Z,2.30
2022-10-22T20:22:01.966Z,2.40
2022-10-22T20:24:29.678Z,2.20
2022-10-22T20:26:55.934Z,2.50
2022-10-22T20:29:22.116Z,2.42
2022-10-22T20:31:48.412Z,2.50
2022-10-22T20:34:14.749Z,2.40
2022-10-22T20:36:41.075Z,2.50
2022-10-22T20:39:09.717Z,2.40
2022-10-22T20:41:40.486Z,2.50
2022-10-22T20:44:14.697Z,2.70
2022-10-22T20:46:41.134Z,2.72
2022-10-22T20:49:09.047Z,2.55
2022-10-22T20:51:38.032Z,2.97
2022-10-22T20:54:05.017Z,3.15
2022-10-22T20:56:31.657Z,2.60
2022-10-22T20:59:04.864Z,2.50
2022-10-22T21:02:13.694Z,2.40
2022-10-22T21:04:42.706Z,2.50
2022-10-22T21:07:12.395Z,2.90
2022-10-22T21:09:38.820Z,3.00
2022-10-22T21:12:05.967Z,3.00
2022-10-22T21:14:32.926Z,2.65
2022-10-22T21:16:59.240Z,8.68
2022-10-22T21:19:26.969Z,3.00
2022-10-22T21:21:53.338Z,3.10
2022-10-22T21:24:24.483Z,2.80
2022-10-22T21:26:53.774Z,3.62
2022-10-22T21:29:20.105Z,2.70
2022-10-22T21:31:47.667Z,2.80
2022-10-22T21:34:13.996Z,2.78
2022-10-22T21:36:40.579Z,2.70
2022-10-22T21:39:06.987Z,5.22
2022-10-22T21:41:33.152Z,3.83
2022-10-22T21:43:59.461Z,2.40
2022-10-22T21:46:28.058Z,2.80
2022-10-22T21:48:56.297Z,8.70
2022-10-22T21:51:23.025Z,7.72
2022-10-22T21:53:49.376Z,2.75
2022-10-22T21:56:33.364Z,11.25
2022-10-22T21:59:00.096Z,15.52
2022-10-22T22:01:27.030Z,3.47
2022-10-22T22:03:54.048Z,2.50
2022-10-22T22:06:22.910Z,13.62
2022-10-22T22:08:50.450Z,11.00
2022-10-22T22:11:22.473Z,19.05
2022-10-22T22:13:48.880Z,9.65
2022-10-22T22:16:22.479Z,6.82
2022-10-22T22:18:52.127Z,12.07
2022-10-22T22:21:19.450Z,8.18
2022-10-22T22:23:46.911Z,9.50
2022-10-22T22:26:14.230Z,13.80
2022-10-22T22:28:40.573Z,18.33
2022-10-22T22:31:37.915Z,19.48
2022-10-22T22:34:10.287Z,2.92
2022-10-22T22:36:38.611Z,5.18
2022-10-22T22:39:06.763Z,3.72
2022-10-22T22:41:33.488Z,15.70
2022-10-22T22:43:59.729Z,10.27
2022-10-22T22:46:26.039Z,7.37
2022-10-22T22:48:52.590Z,9.48
2022-10-22T22:51:19.127Z,10.13
2022-10-22T22:53:45.543Z,9.82
2022-10-22T22:56:13.810Z,3.58
2022-10-22T22:58:40.038Z,10.93
2022-10-22T23:01:15.330Z,7.53
2022-10-22T23:03:41.941Z,2.30
2022-10-22T23:06:08.354Z,2.37
2022-10-22T23:08:35.722Z,9.70
2022-10-22T23:11:20.553Z,7.35
2022-10-22T23:13:46.787Z,2.47
2022-10-22T23:16:15.415Z,9.00
2022-10-22T23:18:42.104Z,10.98
2022-10-22T23:21:22.783Z,13.13
2022-10-22T23:23:54.540Z,13.10
2022-10-22T23:26:28.553Z,13.70
2022-10-22T23:28:55.283Z,10.85
2022-10-22T23:31:21.724Z,7.53
2022-10-22T23:33:48.531Z,9.13
2022-10-22T23:36:14.875Z,10.25
2022-10-22T23:38:41.396Z,8.18
2022-10-22T23:41:07.855Z,3.62
2022-10-22T23:43:35.441Z,4.25
2022-10-22T23:46:09.974Z,2.62
2022-10-22T23:48:36.369Z,3.45
2022-10-22T23:51:07.025Z,2.92
2022-10-22T23:53:33.769Z,2.10
2022-10-22T23:56:10.165Z,2.33
2022-10-22T23:58:36.552Z,2.42
